createdAt,value
2023-02-03T00:01:34.091Z,12.52
2023-02-03T00:03:57.337Z,12.30
2023-02-03T00:06:20.762Z,12.25
2023-02-03T00:08:44.057Z,12.40
2023-02-03T00:11:09.145Z,12.63
2023-02-03T00:13:32.582Z,12.30
2023-02-03T00:15:56.024Z,12.82
2023-02-03T00:18:19.304Z,12.75
2023-02-03T00:20:42.601Z,13.10
2023-02-03T00:23:06.797Z,13.00
2023-02-03T00:25:30.206Z,11.93
2023-02-03T00:27:54.815Z,11.40
2023-02-03T00:30:18.784Z,12.90
2023-02-03T00:32:42.174Z,12.57
2023-02-03T00:35:06.064Z,11.90
2023-02-03T00:37:29.443Z,12.30
2023-02-03T00:39:52.983Z,12.50
2023-02-03T00:42:16.790Z,12.25
2023-02-03T00:44:41.953Z,12.20
2023-02-03T00:47:05.376Z,11.07
2023-02-03T00:49:28.630Z,11.15
2023-02-03T00:51:52.596Z,11.00
2023-02-03T00:54:17.753Z,10.40
2023-02-03T00:56:41.439Z,10.85
2023-02-03T00:59:04.952Z,10.63
2023-02-03T01:01:29.779Z,10.40
2023-02-03T01:03:55.580Z,11.05
2023-02-03T01:06:21.597Z,9.77
2023-02-03T01:08:45.676Z,10.27
2023-02-03T01:11:09.852Z,9.82
2023-02-03T01:13:33.127Z,9.20
2023-02-03T01:15:56.485Z,10.27
2023-02-03T01:18:21.140Z,9.25
2023-02-03T01:20:44.414Z,9.50
2023-02-03T01:23:07.688Z,9.38
2023-02-03T01:25:30.997Z,9.73
2023-02-03T01:27:54.294Z,9.00
2023-02-03T01:30:18.492Z,9.20
2023-02-03T01:32:41.722Z,8.85
2023-02-03T01:35:07.025Z,9.13
2023-02-03T01:37:30.384Z,8.55
2023-02-03T01:39:53.673Z,9.40
2023-02-03T01:42:17.925Z,8.52
2023-02-03T01:44:47.673Z,8.50
2023-02-03T01:47:18.881Z,8.38
2023-02-03T01:49:46.396Z,8.40
2023-02-03T01:52:11.307Z,8.52
2023-02-03T01:54:40.327Z,9.13
2023-02-03T01:57:12.689Z,8.68
2023-02-03T01:59:37.297Z,9.35
2023-02-03T02:02:01.578Z,8.40
2023-02-03T02:04:33.767Z,7.72
2023-02-03T02:06:58.796Z,8.18
2023-02-03T02:09:24.099Z,9.32
2023-02-03T02:11:47.430Z,8.02
2023-02-03T02:14:10.843Z,8.32
2023-02-03T02:16:47.709Z,8.63
2023-02-03T02:19:45.967Z,7.97
2023-02-03T02:22:15.867Z,7.93
2023-02-03T02:25:11.916Z,7.18
2023-02-03T02:28:19.593Z,7.15
2023-02-03T02:31:08.242Z,7.32
2023-02-03T02:33:42.638Z,7.05
2023-02-03T02:36:19.497Z,7.53
2023-02-03T02:38:52.181Z,7.13
2023-02-03T02:41:21.714Z,6.13
2023-02-03T02:43:52.819Z,5.70
2023-02-03T02:46:21.369Z,6.10
2023-02-03T02:48:53.132Z,6.05
2023-02-03T02:51:17.960Z,6.72
2023-02-03T02:53:47.008Z,5.53
2023-02-03T02:56:15.600Z,6.32
2023-02-03T02:58:42.452Z,6.10
2023-02-03T03:01:08.370Z,6.20
2023-02-03T03:03:34.572Z,6.18
2023-02-03T03:06:03.961Z,6.82
2023-02-03T03:08:37.835Z,5.93
2023-02-03T03:11:03.510Z,6.03
2023-02-03T03:13:33.563Z,6.30
2023-02-03T03:16:01.093Z,6.03
2023-02-03T03:18:30.411Z,6.78
2023-02-03T03:20:57.353Z,6.07
2023-02-03T03:23:27.102Z,7.00
2023-02-03T03:25:56.445Z,6.38
2023-02-03T03:28:27.113Z,6.88
2023-02-03T03:30:50.669Z,6.50
2023-02-03T03:33:14.237Z,6.50
2023-02-03T03:35:49.423Z,5.57
2023-02-03T03:38:19.353Z,6.45
2023-02-03T03:40:50.841Z,7.00
2023-02-03T03:43:20.405Z,5.85
2023-02-03T03:45:50.380Z,6.25
2023-02-03T03:48:18.892Z,6.55
2023-02-03T03:50:46.419Z,6.18
2023-02-03T03:53:11.784Z,5.97
2023-02-03T03:55:37.641Z,5.85
2023-02-03T03:58:07.027Z,6.18
2023-02-03T04:00:33.910Z,5.65
2023-02-03T04:02:59.688Z,6.05
2023-02-03T04:05:23.440Z,5.30
2023-02-03T04:07:49.331Z,5.72
2023-02-03T04:10:24.634Z,5.18
2023-02-03T04:12:47.959Z,5.50
2023-02-03T04:15:12.682Z,5.68
2023-02-03T04:17:36.502Z,5.60
2023-02-03T04:19:59.764Z,4.95
2023-02-03T04:22:23.007Z,4.80
2023-02-03T04:24:46.306Z,4.88
2023-02-03T04:27:09.604Z,4.97
2023-02-03T04:29:33.018Z,5.40
2023-02-03T04:31:57.915Z,4.25
2023-02-03T04:34:21.251Z,4.75
2023-02-03T04:36:44.525Z,5.20
2023-02-03T04:39:08.171Z,3.60
2023-02-03T04:41:31.421Z,4.90
2023-02-03T04:43:54.766Z,4.28
2023-02-03T04:46:18.960Z,4.60
2023-02-03T04:48:43.641Z,4.32
2023-02-03T04:51:09.561Z,3.95
2023-02-03T04:53:33.283Z,4.25
2023-02-03T04:55:56.569Z,3.95
2023-02-03T04:58:19.950Z,3.78
2023-02-03T05:00:43.316Z,4.40
2023-02-03T05:03:06.732Z,3.58
2023-02-03T05:05:31.591Z,3.80
2023-02-03T05:07:54.849Z,3.20
2023-02-03T05:10:18.591Z,4.10
2023-02-03T05:12:41.908Z,3.35
2023-02-03T05:15:05.927Z,3.70
2023-02-03T05:17:29.282Z,3.65
2023-02-03T05:19:52.571Z,3.53
2023-02-03T05:22:17.204Z,3.92
2023-02-03T05:24:40.498Z,4.10
2023-02-03T05:27:03.822Z,4.00
2023-02-03T05:29:27.527Z,3.67
2023-02-03T05:31:50.938Z,3.70
2023-02-03T05:34:14.344Z,3.55
2023-02-03T05:36:37.574Z,3.47
2023-02-03T05:39:02.135Z,3.45
2023-02-03T05:41:42.699Z,3.38
2023-02-03T05:44:06.234Z,2.92
2023-02-03T05:46:29.955Z,3.80
2023-02-03T05:48:53.267Z,3.58
2023-02-03T05:51:16.706Z,3.95
2023-02-03T05:53:40.205Z,3.33
2023-02-03T05:56:05.504Z,3.00
2023-02-03T05:58:28.740Z,3.45
2023-02-03T06:00:53.097Z,3.28
2023-02-03T06:03:16.675Z,2.90
2023-02-03T06:05:41.417Z,3.47
2023-02-03T06:08:05.223Z,3.22
2023-02-03T06:10:29.561Z,2.78
2023-02-03T06:12:54.867Z,3.42
2023-02-03T06:15:18.570Z,2.85
2023-02-03T06:17:45.498Z,3.15
2023-02-03T06:20:12.231Z,3.17
2023-02-03T06:22:36.272Z,2.70
2023-02-03T06:24:59.632Z,2.53
2023-02-03T06:27:22.883Z,2.80
2023-02-03T06:29:47.545Z,2.83
2023-02-03T06:32:10.949Z,3.13
2023-02-03T06:34:34.612Z,2.63
2023-02-03T06:36:57.987Z,2.70
2023-02-03T06:39:21.717Z,2.85
2023-02-03T06:41:45.035Z,2.95
2023-02-03T06:44:08.980Z,2.97
2023-02-03T06:46:34.034Z,2.83
2023-02-03T06:48:57.854Z,2.42
2023-02-03T06:51:21.237Z,2.60
2023-02-03T06:53:44.595Z,3.67
2023-02-03T06:56:08.122Z,2.97
2023-02-03T06:58:31.476Z,2.97
2023-02-03T07:00:57.127Z,3.17
2023-02-03T07:03:21.738Z,3.08
2023-02-03T07:05:45.174Z,3.45
2023-02-03T07:08:08.474Z,2.72
2023-02-03T07:10:32.033Z,2.83
2023-02-03T07:12:55.696Z,2.97
2023-02-03T07:15:19.886Z,2.80
2023-02-03T07:17:43.086Z,3.10
2023-02-03T07:20:08.971Z,3.10
2023-02-03T07:22:32.602Z,2.92
2023-02-03T07:24:55.951Z,3.00
2023-02-03T07:27:20.303Z,2.55
2023-02-03T07:29:43.721Z,3.00
2023-02-03T07:32:07.138Z,3.00
2023-02-03T07:34:30.864Z,2.75
2023-02-03T07:36:55.923Z,2.50
2023-02-03T07:39:19.404Z,3.17
2023-02-03T07:41:42.720Z,2.85
2023-02-03T07:44:06.831Z,3.13
2023-02-03T07:46:30.302Z,3.30
2023-02-03T07:48:53.886Z,2.50
2023-02-03T07:51:17.340Z,2.78
2023-02-03T07:53:42.154Z,2.90
2023-02-03T07:56:06.906Z,2.40
2023-02-03T07:58:30.789Z,3.00
2023-02-03T08:00:54.153Z,2.85
2023-02-03T08:03:17.528Z,3.05
2023-02-03T08:05:40.902Z,2.75
2023-02-03T08:08:04.332Z,2.80
2023-02-03T08:10:29.933Z,3.22
2023-02-03T08:12:54.897Z,3.03
2023-02-03T08:15:18.341Z,2.90
2023-02-03T08:17:42.134Z,3.67
2023-02-03T08:20:07.178Z,3.03
2023-02-03T08:22:30.411Z,3.22
2023-02-03T08:24:53.672Z,3.70
2023-02-03T08:27:21.825Z,3.13
2023-02-03T08:29:46.032Z,3.60
2023-02-03T08:32:11.318Z,3.25
2023-02-03T08:34:34.652Z,4.32
2023-02-03T08:36:57.980Z,3.10
2023-02-03T08:39:21.341Z,3.97
2023-02-03T08:41:44.657Z,4.05
2023-02-03T08:44:09.306Z,4.10
2023-02-03T08:46:33.194Z,4.25
2023-02-03T08:48:57.553Z,4.13
2023-02-03T08:51:20.815Z,3.92
2023-02-03T08:53:44.629Z,4.07
2023-02-03T08:56:08.636Z,4.13
2023-02-03T08:58:31.931Z,4.30
2023-02-03T09:00:56.576Z,4.30
2023-02-03T09:03:20.012Z,4.90
2023-02-03T09:05:43.371Z,5.10
2023-02-03T09:08:07.147Z,4.70
2023-02-03T09:10:30.842Z,5.22
2023-02-03T09:12:54.339Z,5.25
2023-02-03T09:15:17.946Z,5.40
2023-02-03T09:17:43.106Z,5.10
2023-02-03T09:20:08.006Z,5.90
2023-02-03T09:22:31.506Z,6.25
2023-02-03T09:24:54.992Z,5.55
2023-02-03T09:27:18.307Z,5.10
2023-02-03T09:29:41.699Z,7.05
2023-02-03T09:32:08.827Z,6.60
2023-02-03T09:34:33.701Z,5.40
2023-02-03T09:36:56.987Z,6.05
2023-02-03T09:39:20.482Z,5.68
2023-02-03T09:42:16.788Z,6.05
2023-02-03T09:44:49.122Z,6.40
2023-02-03T09:47:17.097Z,6.28
2023-02-03T09:49:47.180Z,6.68
2023-02-03T09:52:15.874Z,6.43
2023-02-03T09:54:44.689Z,6.38
2023-02-03T09:57:17.654Z,6.53
2023-02-03T09:59:41.298Z,7.05
2023-02-03T10:02:22.921Z,6.43
2023-02-03T10:04:59.308Z,6.47
2023-02-03T10:07:35.087Z,7.25
2023-02-03T10:10:05.901Z,7.25
2023-02-03T10:13:04.598Z,6.53
2023-02-03T10:16:04.330Z,6.78
2023-02-03T10:18:33.664Z,6.57
2023-02-03T10:21:03.351Z,6.45
2023-02-03T10:23:34.576Z,6.72
2023-02-03T10:26:00.795Z,7.15
2023-02-03T10:28:28.675Z,6.50
2023-02-03T10:30:57.578Z,6.78
2023-02-03T10:33:22.125Z,6.40
2023-02-03T10:35:52.571Z,6.90
2023-02-03T10:38:28.440Z,6.70
2023-02-03T10:40:51.896Z,6.32
2023-02-03T10:43:32.468Z,7.03
2023-02-03T10:45:55.929Z,6.60
2023-02-03T10:48:19.914Z,7.15
2023-02-03T10:50:47.952Z,7.40
2023-02-03T10:53:34.367Z,6.32
2023-02-03T10:56:08.639Z,6.03
2023-02-03T10:58:34.722Z,6.03
2023-02-03T11:01:06.081Z,6.60
2023-02-03T11:03:31.592Z,6.03
2023-02-03T11:06:11.597Z,5.32
2023-02-03T11:08:37.934Z,5.72
2023-02-03T11:11:05.008Z,4.80
2023-02-03T11:13:28.471Z,5.20
2023-02-03T11:15:58.129Z,4.90
2023-02-03T11:18:43.464Z,4.78
2023-02-03T11:21:16.779Z,4.53
2023-02-03T11:23:55.656Z,4.20
2023-02-03T11:26:23.251Z,3.80
2023-02-03T11:28:50.064Z,4.32
2023-02-03T11:31:22.031Z,3.88
2023-02-03T11:33:49.841Z,3.78
2023-02-03T11:36:14.075Z,3.80
2023-02-03T11:38:37.559Z,3.20
2023-02-03T11:41:03.501Z,3.50
2023-02-03T11:43:26.849Z,3.67
2023-02-03T11:45:54.603Z,3.58
2023-02-03T11:48:31.148Z,3.30
2023-02-03T11:51:05.978Z,3.28
2023-02-03T11:53:56.179Z,3.65
2023-02-03T11:56:35.839Z,3.25
2023-02-03T11:59:19.414Z,3.45
2023-02-03T12:02:01.949Z,4.03
2023-02-03T12:05:07.887Z,4.18
2023-02-03T12:07:54.663Z,3.72
2023-02-03T12:10:39.023Z,4.00
2023-02-03T12:13:18.072Z,4.10
2023-02-03T12:16:00.711Z,4.03
2023-02-03T12:18:42.392Z,4.00
2023-02-03T12:21:30.316Z,4.10
2023-02-03T12:24:02.874Z,4.13
2023-02-03T12:26:31.204Z,4.03
2023-02-03T12:29:04.197Z,4.15
2023-02-03T12:31:36.650Z,4.05
2023-02-03T12:34:15.032Z,3.90
2023-02-03T12:36:42.474Z,3.78
2023-02-03T12:39:15.120Z,4.40
2023-02-03T12:41:43.188Z,4.03
2023-02-03T12:44:17.816Z,4.30
2023-02-03T12:46:46.212Z,4.07
2023-02-03T12:49:21.043Z,4.03
2023-02-03T12:51:51.472Z,4.18
2023-02-03T12:54:32.032Z,4.10
2023-02-03T12:57:02.178Z,4.35
2023-02-03T12:59:30.857Z,4.63
2023-02-03T13:01:59.614Z,4.20
2023-02-03T13:04:30.685Z,3.88
2023-02-03T13:07:00.009Z,4.25
2023-02-03T13:09:33.036Z,4.40
2023-02-03T13:12:05.529Z,4.78
2023-02-03T13:14:37.241Z,4.82
2023-02-03T13:17:08.303Z,4.10
2023-02-03T13:19:42.454Z,4.47
2023-02-03T13:22:12.445Z,4.38
2023-02-03T13:24:35.887Z,4.70
2023-02-03T13:27:30.050Z,4.80
2023-02-03T13:30:17.969Z,4.63
2023-02-03T13:33:02.812Z,4.25
2023-02-03T13:35:52.146Z,4.05
2023-02-03T13:38:57.281Z,4.00
2023-02-03T13:41:28.560Z,4.53
2023-02-03T13:43:54.943Z,4.65
2023-02-03T13:46:26.554Z,4.30
2023-02-03T13:48:50.665Z,4.18
2023-02-03T13:51:17.968Z,4.20
2023-02-03T13:53:44.892Z,4.97
2023-02-03T13:56:10.376Z,4.35
2023-02-03T13:58:36.733Z,3.85
2023-02-03T14:01:38.433Z,4.03
2023-02-03T14:04:03.085Z,4.50
2023-02-03T14:07:04.173Z,4.15
2023-02-03T14:10:17.897Z,3.63
2023-02-03T14:12:59.169Z,3.95
2023-02-03T14:15:34.199Z,3.67
2023-02-03T14:18:21.830Z,3.92
2023-02-03T14:21:15.031Z,3.67
2023-02-03T14:23:51.742Z,3.45
2023-02-03T14:26:25.987Z,4.38
2023-02-03T14:28:52.757Z,3.90
2023-02-03T14:31:21.136Z,5.07
2023-02-03T14:33:59.452Z,6.18
2023-02-03T14:36:35.033Z,5.00
2023-02-03T14:39:02.322Z,4.07
2023-02-03T14:41:36.029Z,4.00
2023-02-03T14:44:10.434Z,4.00
2023-02-03T14:47:08.805Z,3.72
2023-02-03T14:49:53.624Z,4.38
2023-02-03T14:52:53.579Z,4.63
2023-02-03T14:55:36.686Z,4.60
2023-02-03T14:58:03.635Z,3.90
2023-02-03T15:00:34.225Z,3.88
2023-02-03T15:03:30.230Z,3.33
2023-02-03T15:05:59.438Z,3.72
2023-02-03T15:08:36.523Z,3.40
2023-02-03T15:11:00.175Z,3.30
2023-02-03T15:13:28.265Z,3.47
2023-02-03T15:15:54.712Z,3.75
2023-02-03T15:18:24.373Z,3.75
2023-02-03T15:20:49.551Z,4.18
2023-02-03T15:23:23.373Z,4.00
2023-02-03T15:25:46.827Z,4.63
2023-02-03T15:28:16.957Z,4.35
2023-02-03T15:30:41.647Z,4.90
2023-02-03T15:33:09.061Z,4.28
2023-02-03T15:35:35.475Z,4.57
2023-02-03T15:38:04.256Z,4.93
2023-02-03T15:40:39.343Z,4.75
2023-02-03T15:43:09.242Z,5.78
2023-02-03T15:45:35.839Z,5.47
2023-02-03T15:48:03.394Z,4.70
2023-02-03T15:50:32.250Z,5.13
2023-02-03T15:53:01.636Z,4.68
2023-02-03T15:55:34.035Z,5.45
2023-02-03T15:57:57.623Z,5.57
2023-02-03T16:00:33.267Z,4.90
2023-02-03T16:02:59.667Z,5.47
2023-02-03T16:05:27.416Z,4.78
2023-02-03T16:07:51.225Z,4.75
2023-02-03T16:10:32.049Z,4.85
2023-02-03T16:12:55.899Z,4.47
2023-02-03T16:15:24.829Z,4.53
2023-02-03T16:17:48.125Z,4.32
2023-02-03T16:20:29.215Z,4.97
2023-02-03T16:23:19.664Z,4.88
2023-02-03T16:25:44.529Z,4.30
2023-02-03T16:28:35.317Z,3.92
2023-02-03T16:31:20.178Z,4.68
2023-02-03T16:34:05.068Z,4.53
2023-02-03T16:36:45.794Z,4.20
2023-02-03T16:39:31.370Z,4.75
2023-02-03T16:42:14.068Z,5.05
2023-02-03T16:44:54.790Z,4.20
2023-02-03T16:47:43.917Z,4.95
2023-02-03T16:50:37.464Z,4.43
2023-02-03T16:53:01.792Z,4.28
2023-02-03T16:55:25.127Z,4.25
2023-02-03T16:57:51.349Z,5.68
2023-02-03T17:00:17.570Z,5.22
2023-02-03T17:02:40.923Z,4.55
2023-02-03T17:05:04.232Z,4.68
2023-02-03T17:07:27.587Z,5.00
2023-02-03T17:09:51.447Z,4.80
2023-02-03T17:12:15.615Z,12.65
2023-02-03T17:14:40.336Z,5.40
2023-02-03T17:17:03.653Z,7.85
2023-02-03T17:19:26.952Z,5.25
2023-02-03T17:21:51.427Z,5.68
2023-02-03T17:24:14.983Z,5.30
2023-02-03T17:26:38.400Z,5.97
2023-02-03T17:29:03.500Z,5.68
2023-02-03T17:31:28.348Z,11.32
2023-02-03T17:33:53.102Z,9.38
2023-02-03T17:36:19.562Z,6.88
2023-02-03T17:54:55.458Z,6.95
2023-02-03T17:57:18.732Z,6.75
2023-02-03T17:59:42.050Z,5.63
2023-02-03T18:02:07.177Z,6.25
2023-02-03T18:04:30.899Z,7.38
2023-02-03T18:06:54.533Z,7.38
2023-02-03T18:09:18.239Z,7.00
2023-02-03T18:11:41.788Z,6.15
2023-02-03T18:14:06.589Z,5.38
2023-02-03T18:16:33.493Z,5.57
2023-02-03T18:18:58.337Z,6.18
2023-02-03T18:21:26.392Z,5.18
2023-02-03T18:23:51.265Z,6.50
2023-02-03T18:26:15.209Z,5.97
2023-02-03T18:28:39.501Z,6.10
2023-02-03T18:31:07.767Z,5.70
2023-02-03T18:33:31.315Z,6.00
2023-02-03T18:35:57.685Z,5.18
2023-02-03T18:38:21.083Z,5.95
2023-02-03T18:40:44.546Z,5.45
2023-02-03T18:43:08.143Z,6.93
2023-02-03T18:45:34.378Z,5.68
2023-02-03T18:47:57.796Z,6.32
2023-02-03T18:50:21.394Z,6.28
2023-02-03T18:52:46.224Z,11.27
2023-02-03T18:55:10.220Z,7.53
2023-02-03T18:57:33.513Z,5.53
2023-02-03T18:59:57.030Z,6.82
2023-02-03T19:02:21.617Z,6.22
2023-02-03T19:04:44.910Z,6.53
2023-02-03T19:07:08.271Z,6.60
2023-02-03T19:09:34.040Z,5.57
2023-02-03T19:11:58.762Z,5.88
2023-02-03T19:14:23.482Z,5.75
2023-02-03T19:16:50.304Z,5.93
2023-02-03T19:19:15.029Z,5.35
2023-02-03T19:21:38.289Z,5.85
2023-02-03T19:24:01.836Z,6.20
2023-02-03T19:26:27.770Z,5.68
2023-02-03T19:28:52.531Z,5.00
2023-02-03T19:31:16.742Z,6.07
2023-02-03T19:33:40.457Z,6.00
2023-02-03T19:36:04.033Z,5.72
2023-02-03T19:38:27.516Z,6.72
2023-02-03T19:40:51.389Z,5.57
2023-02-03T19:43:16.248Z,5.93
2023-02-03T19:45:39.556Z,6.03
2023-02-03T19:48:02.820Z,6.60
2023-02-03T19:50:26.181Z,7.57
2023-02-03T19:52:49.516Z,8.93
2023-02-03T19:55:16.071Z,6.68
2023-02-03T19:57:40.204Z,7.18
2023-02-03T20:00:05.560Z,7.13
2023-02-03T20:02:36.815Z,11.75
2023-02-03T20:05:00.208Z,10.80
2023-02-03T20:07:24.994Z,7.65
2023-02-03T20:09:48.747Z,7.53
2023-02-03T20:12:13.062Z,7.10
2023-02-03T20:14:36.495Z,7.60
2023-02-03T20:17:03.286Z,7.25
2023-02-03T20:19:26.741Z,7.32
2023-02-03T20:21:50.047Z,7.55
2023-02-03T20:24:17.819Z,7.85
2023-02-03T20:26:41.558Z,7.03
2023-02-03T20:29:04.987Z,6.70
2023-02-03T20:31:28.461Z,7.00
2023-02-03T20:33:53.332Z,7.00
2023-02-03T20:36:16.628Z,6.28
2023-02-03T20:38:40.036Z,7.00
2023-02-03T20:41:03.377Z,6.07
2023-02-03T20:43:28.955Z,6.85
2023-02-03T20:45:53.087Z,6.13
2023-02-03T20:48:18.094Z,5.80
2023-02-03T20:50:46.716Z,6.45
2023-02-03T20:53:15.074Z,5.90
2023-02-03T20:55:38.620Z,6.75
2023-02-03T20:58:02.864Z,5.40
2023-02-03T21:00:28.872Z,4.85
2023-02-03T21:03:10.604Z,5.53
2023-02-03T21:05:38.230Z,5.20
2023-02-03T21:08:03.356Z,5.53
2023-02-03T21:10:27.093Z,4.78
2023-02-03T21:12:50.743Z,5.47
2023-02-03T21:15:20.916Z,5.80
2023-02-03T21:17:44.267Z,6.03
2023-02-03T21:20:25.693Z,4.90
2023-02-03T21:22:49.086Z,4.97
2023-02-03T21:25:28.297Z,5.88
2023-02-03T21:27:53.023Z,6.18
2023-02-03T21:30:30.820Z,6.35
2023-02-03T21:32:54.298Z,5.85
2023-02-03T21:35:24.947Z,5.28
2023-02-03T21:37:48.239Z,5.30
2023-02-03T21:40:24.022Z,5.43
2023-02-03T21:42:48.073Z,5.28
2023-02-03T21:45:28.416Z,5.88
2023-02-03T21:47:53.722Z,5.15
2023-02-03T21:50:30.397Z,5.78
2023-02-03T21:52:54.080Z,5.45
2023-02-03T21:55:19.156Z,5.78
2023-02-03T21:57:42.516Z,5.50
2023-02-03T22:00:42.988Z,6.85
2023-02-03T22:03:08.417Z,5.80
2023-02-03T22:05:31.733Z,6.68
2023-02-03T22:07:55.533Z,6.15
2023-02-03T22:10:20.340Z,6.28
2023-02-03T22:12:43.675Z,6.38
2023-02-03T22:15:08.040Z,6.75
2023-02-03T22:17:31.303Z,5.75
2023-02-03T22:19:54.534Z,6.32
2023-02-03T22:22:17.816Z,6.05
2023-02-03T22:24:41.051Z,5.80
2023-02-03T22:27:06.382Z,6.63
2023-02-03T22:29:29.641Z,6.53
2023-02-03T22:31:53.042Z,6.10
2023-02-03T22:34:16.510Z,5.78
2023-02-03T22:36:39.807Z,6.93
2023-02-03T22:39:03.290Z,5.60
2023-02-03T22:41:26.597Z,5.53
2023-02-03T22:43:51.392Z,5.25
2023-02-03T22:46:14.720Z,6.55
2023-02-03T22:48:38.120Z,5.28
2023-02-03T22:51:01.451Z,7.13
2023-02-03T22:53:24.786Z,7.20
2023-02-03T22:55:48.107Z,7.57
2023-02-03T22:58:11.641Z,6.82
2023-02-03T23:00:36.652Z,5.05
2023-02-03T23:03:00.336Z,5.20
2023-02-03T23:05:24.254Z,5.53
2023-02-03T23:07:48.535Z,5.97
2023-02-03T23:10:16.058Z,5.97
2023-02-03T23:12:40.577Z,5.40
2023-02-03T23:15:04.133Z,5.53
2023-02-03T23:17:28.896Z,8.02
2023-02-03T23:19:52.210Z,6.35
2023-02-03T23:22:15.973Z,6.00
2023-02-03T23:24:39.278Z,6.07
2023-02-03T23:27:02.584Z,5.43
2023-02-03T23:29:25.839Z,5.55
2023-02-03T23:31:49.137Z,5.72
2023-02-03T23:34:31.461Z,7.40
2023-02-03T23:36:54.709Z,5.85
2023-02-03T23:39:17.890Z,6.03
2023-02-03T23:41:41.159Z,5.88
2023-02-03T23:44:04.427Z,6.43
2023-02-03T23:46:28.466Z,7.32
2023-02-03T23:48:51.697Z,6.63
2023-02-03T23:51:16.381Z,6.15
2023-02-03T23:53:39.655Z,5.82
2023-02-03T23:56:02.906Z,6.63
2023-02-03T23:58:26.646Z,6.10
